createdAt,value
2019-01-23T00:00:32.352Z,1.87
2019-01-23T00:03:00.865Z,2.20
2019-01-23T00:05:29.155Z,3.63
2019-01-23T00:07:57.692Z,3.23
2019-01-23T00:10:26.274Z,4.07
2019-01-23T00:12:54.682Z,3.13
2019-01-23T00:15:23.235Z,5.60
2019-01-23T00:17:51.728Z,3.87
2019-01-23T00:20:19.974Z,4.00
2019-01-23T00:22:48.580Z,5.87
2019-01-23T00:25:17.093Z,3.83
2019-01-23T00:27:45.378Z,3.77
2019-01-23T00:30:14.258Z,4.67
2019-01-23T00:32:42.596Z,3.40
2019-01-23T00:35:11.391Z,2.93
2019-01-23T00:37:39.830Z,4.10
2019-01-23T00:40:10.394Z,3.20
2019-01-23T00:42:38.822Z,3.23
2019-01-23T00:45:08.607Z,4.43
2019-01-23T00:47:37.166Z,4.27
2019-01-23T00:50:06.223Z,2.50
2019-01-23T00:52:34.845Z,3.33
2019-01-23T00:55:03.633Z,3.43
2019-01-23T00:57:32.214Z,2.17
2019-01-23T01:00:00.829Z,4.83
2019-01-23T01:02:29.483Z,3.03
2019-01-23T01:04:58.002Z,2.43
2019-01-23T01:07:26.467Z,2.73
2019-01-23T01:09:54.935Z,3.70
2019-01-23T01:12:23.247Z,3.57
2019-01-23T01:14:51.790Z,2.83
2019-01-23T01:17:20.191Z,3.73
2019-01-23T01:19:48.455Z,3.37
2019-01-23T01:22:16.958Z,2.90
2019-01-23T01:24:45.402Z,2.40
2019-01-23T01:27:13.891Z,5.53
2019-01-23T01:29:42.460Z,1.60
2019-01-23T01:32:11.009Z,2.37
2019-01-23T01:34:39.264Z,4.17
2019-01-23T01:37:07.520Z,1.53
2019-01-23T01:39:36.007Z,3.10
2019-01-23T01:42:04.499Z,1.97
2019-01-23T01:44:32.851Z,1.60
2019-01-23T01:47:01.310Z,2.70
2019-01-23T01:49:29.892Z,2.30
2019-01-23T01:51:58.314Z,2.90
2019-01-23T01:54:26.647Z,3.93
2019-01-23T01:56:55.237Z,2.67
2019-01-23T01:59:23.744Z,1.90
2019-01-23T02:01:52.268Z,4.03
2019-01-23T02:04:20.775Z,1.90
2019-01-23T02:06:49.299Z,5.03
2019-01-23T02:09:17.746Z,2.43
2019-01-23T02:11:46.423Z,3.33
2019-01-23T02:14:14.963Z,3.80
2019-01-23T02:16:43.282Z,2.87
2019-01-23T02:19:11.760Z,4.47
2019-01-23T02:21:40.342Z,3.90
2019-01-23T02:24:08.854Z,3.97
2019-01-23T02:26:37.143Z,6.43
2019-01-23T02:29:09.440Z,3.00
2019-01-23T02:31:35.915Z,3.23
2019-01-23T02:34:04.221Z,3.00
2019-01-23T02:36:32.761Z,2.47
2019-01-23T02:39:01.241Z,4.20
2019-01-23T02:41:29.564Z,1.77
2019-01-23T02:43:57.823Z,3.87
2019-01-23T02:46:26.476Z,1.00
2019-01-23T02:48:54.855Z,1.30
2019-01-23T02:51:23.259Z,2.17
2019-01-23T02:53:51.817Z,1.50
2019-01-23T02:56:20.131Z,1.87
2019-01-23T02:58:48.493Z,3.20
2019-01-23T03:01:16.841Z,2.40
2019-01-23T03:03:45.432Z,2.57
2019-01-23T03:06:13.961Z,2.30
2019-01-23T03:08:42.143Z,1.07
2019-01-23T03:11:10.582Z,1.60
2019-01-23T03:13:39.364Z,2.37
2019-01-23T03:16:10.491Z,1.67
2019-01-23T03:18:38.895Z,2.60
2019-01-23T03:21:07.272Z,0.87
2019-01-23T03:23:35.934Z,1.00
2019-01-23T03:26:04.552Z,1.83
2019-01-23T03:28:32.828Z,1.23
2019-01-23T03:31:01.274Z,3.63
2019-01-23T03:33:29.686Z,1.53
2019-01-23T03:35:57.960Z,1.23
2019-01-23T03:38:26.202Z,2.33
2019-01-23T03:40:54.684Z,1.97
2019-01-23T03:43:22.993Z,3.87
2019-01-23T03:45:51.337Z,4.67
2019-01-23T03:48:19.630Z,2.97
2019-01-23T03:50:48.195Z,4.10
2019-01-23T03:53:16.784Z,3.60
2019-01-23T03:55:45.214Z,1.93
2019-01-23T03:58:13.737Z,2.90
2019-01-23T04:00:42.256Z,2.70
2019-01-23T04:03:10.627Z,2.43
2019-01-23T04:05:38.896Z,1.53
2019-01-23T04:08:07.454Z,1.60
2019-01-23T04:10:35.959Z,2.17
2019-01-23T04:13:04.354Z,1.50
2019-01-23T04:15:32.811Z,3.07
2019-01-23T04:18:01.376Z,2.23
2019-01-23T04:20:29.795Z,2.53
2019-01-23T04:22:58.336Z,2.80
2019-01-23T04:25:26.848Z,2.90
2019-01-23T04:27:55.401Z,2.20
2019-01-23T04:30:24.222Z,3.90
2019-01-23T04:32:52.673Z,2.47
2019-01-23T04:35:21.391Z,4.23
2019-01-23T04:37:50.038Z,5.63
2019-01-23T04:40:18.651Z,2.07
2019-01-23T04:42:47.205Z,4.33
2019-01-23T04:45:15.798Z,2.40
2019-01-23T04:47:44.062Z,3.53
2019-01-23T04:50:13.945Z,3.43
2019-01-23T04:53:01.813Z,3.97
2019-01-23T04:55:30.303Z,3.40
2019-01-23T04:57:58.588Z,3.10
2019-01-23T05:00:27.983Z,4.17
2019-01-23T05:02:56.261Z,2.50
2019-01-23T05:05:24.626Z,2.77
2019-01-23T05:07:53.245Z,2.60
2019-01-23T05:10:21.537Z,1.97
2019-01-23T05:12:49.821Z,1.43
2019-01-23T05:15:18.339Z,2.30
2019-01-23T05:17:46.764Z,0.90
2019-01-23T05:20:15.204Z,2.17
2019-01-23T05:22:43.783Z,1.23
2019-01-23T05:25:12.502Z,1.37
2019-01-23T05:27:41.156Z,0.60
2019-01-23T05:30:16.593Z,3.83
2019-01-23T05:32:44.991Z,1.80
2019-01-23T05:35:32.717Z,2.00
2019-01-23T05:38:01.217Z,0.70
2019-01-23T05:40:29.484Z,1.07
2019-01-23T05:42:57.794Z,1.80
2019-01-23T05:45:26.242Z,1.03
2019-01-23T05:47:54.540Z,3.30
2019-01-23T05:50:23.017Z,1.93
2019-01-23T05:52:51.552Z,1.53
2019-01-23T05:55:19.980Z,2.63
2019-01-23T05:57:48.513Z,2.40
2019-01-23T06:00:18.776Z,5.53
2019-01-23T06:02:47.167Z,3.83
2019-01-23T06:05:16.300Z,4.03
2019-01-23T06:07:44.622Z,3.37
2019-01-23T06:10:13.303Z,3.10
2019-01-23T06:12:41.765Z,2.90
2019-01-23T06:15:10.845Z,3.67
2019-01-23T06:17:39.258Z,8.67
2019-01-23T06:20:10.165Z,5.57
2019-01-23T06:22:38.744Z,3.17
2019-01-23T06:25:07.489Z,3.10
2019-01-23T06:27:35.909Z,6.67
2019-01-23T06:30:10.487Z,4.27
2019-01-23T06:32:37.001Z,1.50
2019-01-23T06:35:05.819Z,3.30
2019-01-23T06:37:34.374Z,3.47
2019-01-23T06:40:02.854Z,9.17
2019-01-23T06:42:31.399Z,6.00
2019-01-23T06:44:59.916Z,7.73
2019-01-23T06:47:28.462Z,11.87
2019-01-23T06:49:56.845Z,31.23
2019-01-23T06:52:25.152Z,36.30
2019-01-23T06:54:53.425Z,34.17
2019-01-23T06:57:21.873Z,33.53
2019-01-23T06:59:50.352Z,31.70
2019-01-23T07:02:18.719Z,29.10
2019-01-23T07:04:47.220Z,31.50
2019-01-23T07:07:15.536Z,33.80
2019-01-23T07:09:44.172Z,31.67
2019-01-23T07:12:12.652Z,25.93
2019-01-23T07:14:41.131Z,33.67
2019-01-23T07:17:09.718Z,28.97
2019-01-23T07:19:39.132Z,22.47
2019-01-23T07:22:07.597Z,22.20
2019-01-23T07:24:36.012Z,28.80
2019-01-23T07:27:04.565Z,28.67
2019-01-23T07:29:33.140Z,28.77
2019-01-23T07:32:01.622Z,27.53
2019-01-23T07:34:30.110Z,25.13
2019-01-23T07:36:58.398Z,26.60
2019-01-23T07:39:26.960Z,23.53
2019-01-23T07:41:55.348Z,24.87
2019-01-23T07:44:24.130Z,26.77
2019-01-23T07:46:52.528Z,25.63
2019-01-23T07:49:20.881Z,25.00
2019-01-23T07:51:49.259Z,14.10
2019-01-23T07:54:17.778Z,15.93
2019-01-23T07:56:46.110Z,20.40
2019-01-23T07:59:14.415Z,22.73
2019-01-23T08:01:42.975Z,24.53
2019-01-23T08:04:11.447Z,25.13
2019-01-23T08:06:40.064Z,25.40
2019-01-23T08:09:08.725Z,20.53
2019-01-23T08:11:37.219Z,20.40
2019-01-23T08:14:05.626Z,16.97
2019-01-23T08:16:33.993Z,12.93
2019-01-23T08:19:02.440Z,11.37
2019-01-23T08:21:31.126Z,10.33
2019-01-23T08:23:59.746Z,9.77
2019-01-23T08:26:28.214Z,10.00
2019-01-23T08:28:56.464Z,9.83
2019-01-23T08:31:24.981Z,7.93
2019-01-23T08:33:53.529Z,7.17
2019-01-23T08:36:22.212Z,4.07
2019-01-23T08:38:50.540Z,5.07
2019-01-23T08:41:18.908Z,5.13
2019-01-23T08:43:47.177Z,8.10
2019-01-23T08:46:15.408Z,7.20
2019-01-23T08:48:43.796Z,5.00
2019-01-23T08:51:12.583Z,4.07
2019-01-23T08:53:40.887Z,4.60
2019-01-23T08:56:09.239Z,6.13
2019-01-23T08:58:37.547Z,5.27
2019-01-23T09:01:06.201Z,3.87
2019-01-23T09:03:34.717Z,3.43
2019-01-23T09:06:03.536Z,4.17
2019-01-23T09:08:37.631Z,3.30
2019-01-23T09:11:02.269Z,4.50
2019-01-23T09:13:30.648Z,7.30
2019-01-23T09:15:59.161Z,5.60
2019-01-23T09:18:27.664Z,4.60
2019-01-23T09:20:56.027Z,5.67
2019-01-23T09:23:24.292Z,6.90
2019-01-23T09:25:52.845Z,4.27
2019-01-23T09:28:21.476Z,2.30
2019-01-23T09:31:49.334Z,4.70
2019-01-23T09:34:37.852Z,5.93
2019-01-23T09:37:29.062Z,3.43
2019-01-23T09:40:13.211Z,4.10
2019-01-23T09:42:54.898Z,4.33
2019-01-23T09:45:56.487Z,4.40
2019-01-23T09:49:21.666Z,3.47
2019-01-23T09:52:33.286Z,7.20
2019-01-23T09:55:01.979Z,5.53
2019-01-23T09:57:32.198Z,4.78
2019-01-23T10:00:00.488Z,4.70
2019-01-23T10:02:29.021Z,4.17
2019-01-23T10:04:57.400Z,4.15
2019-01-23T10:07:25.784Z,7.65
2019-01-23T10:09:54.157Z,3.70
2019-01-23T10:12:22.639Z,5.13
2019-01-23T10:14:51.040Z,4.27
2019-01-23T10:17:19.628Z,3.00
2019-01-23T10:19:47.928Z,5.03
2019-01-23T10:22:16.505Z,4.00
2019-01-23T10:24:44.870Z,3.83
2019-01-23T10:27:13.243Z,4.53
2019-01-23T10:29:41.486Z,3.90
2019-01-23T10:32:09.977Z,3.60
2019-01-23T10:34:38.549Z,4.70
2019-01-23T10:37:07.131Z,3.47
2019-01-23T10:39:35.352Z,4.00
2019-01-23T10:42:04.249Z,5.67
2019-01-23T10:44:32.777Z,3.97
2019-01-23T10:47:01.293Z,5.87
2019-01-23T10:49:29.660Z,5.20
2019-01-23T10:51:58.039Z,5.67
2019-01-23T10:54:26.600Z,3.93
2019-01-23T10:56:55.009Z,7.70
2019-01-23T10:59:23.301Z,3.97
2019-01-23T11:01:51.730Z,4.77
2019-01-23T11:04:20.116Z,5.00
2019-01-23T11:06:48.691Z,3.93
2019-01-23T11:09:17.261Z,4.27
2019-01-23T11:11:45.721Z,5.30
2019-01-23T11:14:14.339Z,6.73
2019-01-23T11:16:42.843Z,8.50
2019-01-23T11:19:11.233Z,8.87
2019-01-23T11:21:39.603Z,6.90
2019-01-23T11:24:08.155Z,7.07
2019-01-23T11:26:36.684Z,9.17
2019-01-23T11:29:05.049Z,4.90
2019-01-23T11:31:33.527Z,4.80
2019-01-23T11:34:01.977Z,7.73
2019-01-23T11:36:30.376Z,6.27
2019-01-23T11:38:58.846Z,9.10
2019-01-23T11:41:27.416Z,7.43
2019-01-23T11:43:55.814Z,8.33
2019-01-23T11:46:24.130Z,5.30
2019-01-23T11:48:52.549Z,5.97
2019-01-23T11:51:21.031Z,5.50
2019-01-23T11:53:49.409Z,6.20
2019-01-23T11:56:17.824Z,9.73
2019-01-23T11:58:46.084Z,10.87
2019-01-23T12:01:14.759Z,7.73
2019-01-23T12:03:43.226Z,13.90
2019-01-23T12:06:11.627Z,12.00
2019-01-23T12:08:40.300Z,4.90
2019-01-23T12:11:08.803Z,6.73
2019-01-23T12:13:37.209Z,8.90
2019-01-23T12:16:05.568Z,13.07
2019-01-23T12:18:33.923Z,9.23
2019-01-23T12:21:02.248Z,6.20
2019-01-23T12:23:30.967Z,5.93
2019-01-23T12:25:59.284Z,7.30
2019-01-23T12:28:29.198Z,8.77
2019-01-23T12:30:57.741Z,9.03
2019-01-23T12:33:26.118Z,7.90
2019-01-23T12:35:54.804Z,7.37
2019-01-23T12:38:23.287Z,7.13
2019-01-23T12:40:51.790Z,6.90
2019-01-23T12:43:20.452Z,8.00
2019-01-23T12:45:49.031Z,12.43
2019-01-23T12:48:17.535Z,7.23
2019-01-23T12:50:46.094Z,11.80
2019-01-23T12:53:14.596Z,11.00
2019-01-23T12:55:43.682Z,14.20
2019-01-23T12:58:12.388Z,6.33
2019-01-23T13:00:41.233Z,7.50
2019-01-23T13:03:11.620Z,7.00
2019-01-23T13:05:40.257Z,4.97
2019-01-23T13:08:08.741Z,6.10
2019-01-23T13:10:37.039Z,6.37
2019-01-23T13:13:05.492Z,7.37
2019-01-23T13:15:34.354Z,5.57
2019-01-23T13:18:02.710Z,8.30
2019-01-23T13:20:31.137Z,8.90
2019-01-23T13:22:59.718Z,7.37
2019-01-23T13:25:29.059Z,9.67
2019-01-23T13:27:59.444Z,8.60
2019-01-23T13:30:28.203Z,6.30
2019-01-23T13:32:56.818Z,6.47
2019-01-23T13:35:27.582Z,4.93
2019-01-23T13:37:56.167Z,5.47
2019-01-23T13:40:29.714Z,7.83
2019-01-23T13:42:58.332Z,5.43
2019-01-23T13:45:26.793Z,6.93
2019-01-23T13:47:55.620Z,5.17
2019-01-23T13:50:24.367Z,4.53
2019-01-23T13:52:52.676Z,8.03
2019-01-23T13:55:21.351Z,4.03
2019-01-23T13:57:49.848Z,10.53
2019-01-23T14:00:20.931Z,5.57
2019-01-23T14:02:49.553Z,5.20
2019-01-23T14:05:18.129Z,8.57
2019-01-23T14:07:46.521Z,5.83
2019-01-23T14:10:15.672Z,6.67
2019-01-23T14:12:44.377Z,8.40
2019-01-23T14:15:16.853Z,6.83
2019-01-23T14:17:45.673Z,5.80
2019-01-23T14:20:14.950Z,8.23
2019-01-23T14:22:43.634Z,4.93
2019-01-23T14:25:13.596Z,4.63
2019-01-23T14:27:41.980Z,4.93
2019-01-23T14:30:17.640Z,4.97
2019-01-23T14:32:45.928Z,5.73
2019-01-23T14:35:14.172Z,6.33
2019-01-23T14:37:42.597Z,5.97
2019-01-23T14:40:11.608Z,5.83
2019-01-23T14:42:40.382Z,5.03
2019-01-23T14:45:09.084Z,7.63
2019-01-23T14:47:37.559Z,7.27
2019-01-23T14:50:07.481Z,8.00
2019-01-23T14:52:36.143Z,9.10
2019-01-23T14:55:05.063Z,5.90
2019-01-23T14:57:33.323Z,7.40
2019-01-23T15:00:01.990Z,12.43
2019-01-23T15:02:30.493Z,7.97
2019-01-23T15:04:58.786Z,7.07
2019-01-23T15:07:27.015Z,10.17
2019-01-23T15:09:55.604Z,6.07
2019-01-23T15:12:24.187Z,10.43
2019-01-23T15:14:52.770Z,9.23
2019-01-23T15:17:21.391Z,8.87
2019-01-23T15:19:49.866Z,13.13
2019-01-23T15:22:18.212Z,10.03
2019-01-23T15:24:46.836Z,9.63
2019-01-23T15:27:15.107Z,6.93
2019-01-23T15:29:43.374Z,8.00
2019-01-23T15:32:17.214Z,12.10
2019-01-23T15:34:42.266Z,11.90
2019-01-23T15:37:10.868Z,9.53
2019-01-23T15:39:39.313Z,7.53
2019-01-23T15:42:07.723Z,9.47
2019-01-23T15:44:36.381Z,11.17
2019-01-23T15:47:04.961Z,9.10
2019-01-23T15:49:33.443Z,10.20
2019-01-23T15:52:01.784Z,9.37
2019-01-23T15:54:30.103Z,14.37
2019-01-23T15:56:58.679Z,10.77
2019-01-23T15:59:26.970Z,8.93
2019-01-23T16:01:55.452Z,17.47
2019-01-23T16:04:23.948Z,14.50
2019-01-23T16:06:52.321Z,12.80
2019-01-23T16:09:20.811Z,12.93
2019-01-23T16:11:49.293Z,10.80
2019-01-23T16:14:17.652Z,13.33
2019-01-23T16:16:45.998Z,9.63
2019-01-23T16:19:14.595Z,69.70
2019-01-23T16:21:45.735Z,27.97
2019-01-23T16:24:13.395Z,56.77
2019-01-23T16:26:41.708Z,20.13
2019-01-23T16:29:10.085Z,20.80
2019-01-23T16:31:41.395Z,15.17
2019-01-23T16:34:09.791Z,16.13
2019-01-23T16:36:38.065Z,12.53
2019-01-23T16:39:08.011Z,13.20
2019-01-23T16:41:36.648Z,9.17
2019-01-23T16:44:05.357Z,11.97
2019-01-23T16:46:33.813Z,12.23
2019-01-23T16:49:02.396Z,17.30
2019-01-23T16:51:30.882Z,16.20
2019-01-23T16:53:59.459Z,14.47
2019-01-23T16:56:27.746Z,11.63
2019-01-23T16:58:56.145Z,14.93
2019-01-23T17:01:24.799Z,16.40
2019-01-23T17:03:53.312Z,9.30
2019-01-23T17:06:21.674Z,8.67
2019-01-23T17:08:50.238Z,10.87
2019-01-23T17:11:18.643Z,10.03
2019-01-23T17:13:47.119Z,11.67
2019-01-23T17:16:15.730Z,8.03
2019-01-23T17:18:44.203Z,12.93
2019-01-23T17:21:12.572Z,15.13
2019-01-23T17:23:41.076Z,16.27
2019-01-23T17:26:09.418Z,23.50
2019-01-23T17:28:37.881Z,14.67
2019-01-23T17:31:06.459Z,17.27
2019-01-23T17:33:34.885Z,16.70
2019-01-23T17:36:03.218Z,20.77
2019-01-23T17:38:31.801Z,15.83
2019-01-23T17:41:00.221Z,19.17
2019-01-23T17:43:29.123Z,16.40
2019-01-23T17:45:57.857Z,20.57
2019-01-23T17:48:26.247Z,22.50
2019-01-23T17:50:54.580Z,19.70
2019-01-23T17:53:22.959Z,23.30
2019-01-23T17:55:51.279Z,32.53
2019-01-23T17:58:19.724Z,25.27
2019-01-23T18:00:53.139Z,24.90
2019-01-23T18:03:21.648Z,30.70
2019-01-23T18:05:51.265Z,26.57
2019-01-23T18:08:20.492Z,27.40
2019-01-23T18:10:52.396Z,23.60
2019-01-23T18:13:22.979Z,25.43
2019-01-23T18:15:52.358Z,24.93
2019-01-23T18:18:21.852Z,27.83
2019-01-23T18:20:50.505Z,30.13
2019-01-23T18:23:19.646Z,35.03
2019-01-23T18:25:48.080Z,27.80
2019-01-23T18:28:17.013Z,35.40
2019-01-23T18:30:52.315Z,32.87
2019-01-23T18:33:27.322Z,38.07
2019-01-23T18:36:42.008Z,45.87
2019-01-23T18:39:30.477Z,57.10
2019-01-23T18:42:43.115Z,62.90
2019-01-23T18:46:05.211Z,51.48
2019-01-23T18:48:59.683Z,51.67
2019-01-23T18:51:43.827Z,56.57
2019-01-23T18:54:12.934Z,46.53
2019-01-23T18:56:41.678Z,48.00
2019-01-23T18:59:15.332Z,45.53
2019-01-23T19:01:45.071Z,42.87
2019-01-23T19:04:13.794Z,47.67
2019-01-23T19:06:42.617Z,42.83
2019-01-23T19:09:12.700Z,42.77
2019-01-23T19:11:43.287Z,41.07
2019-01-23T19:14:12.114Z,41.27
2019-01-23T19:16:41.080Z,43.70
2019-01-23T19:19:10.343Z,35.60
2019-01-23T19:21:39.465Z,35.77
2019-01-23T19:24:08.225Z,34.27
2019-01-23T19:26:37.353Z,29.43
2019-01-23T19:29:06.374Z,23.80
2019-01-23T19:31:35.667Z,26.83
2019-01-23T19:34:12.376Z,33.90
2019-01-23T19:36:40.901Z,33.53
2019-01-23T19:39:12.260Z,30.77
2019-01-23T19:41:41.452Z,24.67
2019-01-23T19:44:10.597Z,22.60
2019-01-23T19:46:39.051Z,25.57
2019-01-23T19:49:07.517Z,26.27
2019-01-23T19:51:36.515Z,24.90
2019-01-23T19:54:08.937Z,26.80
2019-01-23T19:56:37.395Z,28.77
2019-01-23T19:59:06.318Z,32.77
2019-01-23T20:01:35.411Z,27.30
2019-01-23T20:04:04.428Z,25.67
2019-01-23T20:06:33.880Z,25.77
2019-01-23T20:09:26.618Z,26.20
2019-01-23T20:11:58.926Z,24.57
2019-01-23T20:14:30.524Z,30.90
2019-01-23T20:16:59.018Z,36.23
2019-01-23T20:19:30.294Z,39.33
2019-01-23T20:22:00.310Z,38.93
2019-01-23T20:24:29.713Z,42.20
2019-01-23T20:27:14.065Z,48.73
2019-01-23T20:29:43.423Z,41.57
2019-01-23T20:32:14.537Z,48.17
2019-01-23T20:34:43.106Z,47.80
2019-01-23T20:37:11.605Z,45.07
2019-01-23T20:39:41.042Z,49.50
2019-01-23T20:42:15.809Z,57.70
2019-01-23T20:44:44.793Z,43.67
2019-01-23T20:47:22.256Z,51.27
2019-01-23T20:49:51.215Z,43.00
2019-01-23T20:52:23.603Z,47.50
2019-01-23T20:54:52.653Z,51.03
2019-01-23T20:57:21.843Z,47.03
2019-01-23T20:59:52.682Z,43.30
2019-01-23T21:02:21.737Z,43.13
2019-01-23T21:05:01.711Z,42.67
2019-01-23T21:07:34.786Z,40.37
2019-01-23T21:10:05.071Z,39.60
2019-01-23T21:12:34.380Z,41.23
2019-01-23T21:15:04.465Z,38.73
2019-01-23T21:17:37.482Z,38.90
2019-01-23T21:20:06.835Z,40.40
2019-01-23T21:22:35.634Z,33.80
2019-01-23T21:25:05.917Z,34.90
2019-01-23T21:27:36.102Z,34.23
2019-01-23T21:30:06.904Z,31.03
2019-01-23T21:32:38.763Z,29.93
2019-01-23T21:35:11.524Z,36.47
2019-01-23T21:37:41.300Z,26.37
2019-01-23T21:40:18.538Z,27.87
2019-01-23T21:42:47.636Z,27.40
2019-01-23T21:45:17.192Z,24.50
2019-01-23T21:47:50.441Z,21.63
2019-01-23T21:50:20.428Z,22.30
2019-01-23T21:52:49.786Z,21.43
2019-01-23T21:55:20.379Z,23.00
2019-01-23T21:57:49.182Z,23.80
2019-01-23T22:00:30.754Z,24.93
2019-01-23T22:03:00.691Z,19.80
2019-01-23T22:05:30.993Z,20.37
2019-01-23T22:07:59.945Z,27.67
2019-01-23T22:10:28.585Z,22.17
2019-01-23T22:12:57.544Z,21.67
2019-01-23T22:15:26.501Z,24.20
2019-01-23T22:18:01.097Z,22.17
2019-01-23T22:20:30.126Z,20.10
2019-01-23T22:22:58.671Z,22.20
2019-01-23T22:25:28.628Z,17.73
2019-01-23T22:27:57.632Z,17.80
2019-01-23T22:30:27.710Z,15.43
2019-01-23T22:32:56.518Z,19.97
2019-01-23T22:35:26.966Z,14.00
2019-01-23T22:37:57.926Z,17.55
2019-01-23T22:40:26.452Z,14.37
2019-01-23T22:42:54.813Z,13.23
2019-01-23T22:45:23.130Z,11.47
2019-01-23T22:47:51.541Z,14.00
2019-01-23T22:50:22.044Z,13.90
2019-01-23T22:52:50.797Z,14.43
2019-01-23T22:55:19.321Z,13.77
2019-01-23T22:57:47.922Z,11.83
2019-01-23T23:00:43.638Z,13.97
2019-01-23T23:03:14.632Z,8.70
2019-01-23T23:05:42.988Z,8.83
2019-01-23T23:08:11.443Z,11.23
2019-01-23T23:10:39.937Z,10.63
2019-01-23T23:13:08.544Z,10.07
2019-01-23T23:15:37.189Z,9.67
2019-01-23T23:18:05.768Z,7.93
2019-01-23T23:20:34.382Z,8.67
2019-01-23T23:23:02.932Z,9.60
2019-01-23T23:25:31.414Z,9.40
2019-01-23T23:27:59.926Z,8.80
2019-01-23T23:30:28.435Z,6.83
2019-01-23T23:32:56.959Z,5.93
2019-01-23T23:35:25.380Z,9.17
2019-01-23T23:37:53.718Z,9.30
2019-01-23T23:40:22.161Z,9.87
2019-01-23T23:42:50.777Z,6.20
2019-01-23T23:45:19.351Z,6.00
2019-01-23T23:47:47.840Z,6.53
2019-01-23T23:50:16.643Z,5.97
2019-01-23T23:52:45.004Z,8.03
2019-01-23T23:55:13.930Z,7.80
2019-01-23T23:57:42.328Z,7.80
